Marple, United Kingdom
Current Conditions -  °F | °C
As of 9:50 AM on Saturday 01 Nov 2014 (Local Time) from EGCC Reporting Station
Few Clouds Few Clouds  
Wind Chill: 55°   Ceiling: Unl
Heat Index: 55°   Visibility: 6mi
Dew Point: 50°   Wind: 15mph
Humidity: 82%   Direction: 200°SSW
Pressure: 29.88"   Gusts: NA
Location:  53.39°N, 2.06°W
Report Text: EGCC 010950Z 20013KT 9999 FEW025 13/10 Q1012
Loading
Personal Weather Stations






























Interactive Weather Map
Tropical Storm Tracking
New forecast layout! Learn more

10-Day Weather Forecast

Advertisements
Track Severe Weather on mobile